sensor_id;sensor_type;location;lat;lon;timestamp;temperature;humidity
7143;DHT22;3613;48.902;9.204;2022-10-15T00:02:20;14.00;99.90
7143;DHT22;3613;48.902;9.204;2022-10-15T00:04:48;14.00;99.90
7143;DHT22;3613;48.902;9.204;2022-10-15T00:07:14;14.20;99.90
7143;DHT22;3613;48.902;9.204;2022-10-15T00:09:39;14.10;99.90
7143;DHT22;3613;48.902;9.204;2022-10-15T00:12:05;14.10;99.90
7143;DHT22;3613;48.902;9.204;2022-10-15T00:14:31;14.10;99.90
7143;DHT22;3613;48.902;9.204;2022-10-15T00:16:56;14.10;99.90
7143;DHT22;3613;48.902;9.204;2022-10-15T00:19:27;14.10;99.90
7143;DHT22;3613;48.902;9.204;2022-10-15T00:21:52;14.10;99.90
7143;DHT22;3613;48.902;9.204;2022-10-15T00:24:20;14.70;99.90
7143;DHT22;3613;48.902;9.204;2022-10-15T00:26:46;14.20;99.90
7143;DHT22;3613;48.902;9.204;2022-10-15T00:29:11;14.10;99.90
7143;DHT22;3613;48.902;9.204;2022-10-15T00:31:37;14.10;99.90
7143;DHT22;3613;48.902;9.204;2022-10-15T00:34:03;14.20;99.90
7143;DHT22;3613;48.902;9.204;2022-10-15T00:36:35;14.20;99.90
7143;DHT22;3613;48.902;9.204;2022-10-15T00:39:02;14.20;99.90
7143;DHT22;3613;48.902;9.204;2022-10-15T00:41:35;14.20;99.90
7143;DHT22;3613;48.902;9.204;2022-10-15T00:46:48;14.30;99.90
7143;DHT22;3613;48.902;9.204;2022-10-15T00:51:54;14.30;99.90
7143;DHT22;3613;48.902;9.204;2022-10-15T00:54:22;14.30;99.90
7143;DHT22;3613;48.902;9.204;2022-10-15T00:56:49;14.40;99.90
7143;DHT22;3613;48.902;9.204;2022-10-15T00:59:19;14.30;99.90
7143;DHT22;3613;48.902;9.204;2022-10-15T01:01:49;14.30;99.90
7143;DHT22;3613;48.902;9.204;2022-10-15T01:04:15;14.30;99.90
7143;DHT22;3613;48.902;9.204;2022-10-15T01:06:43;14.30;99.90
7143;DHT22;3613;48.902;9.204;2022-10-15T01:09:09;14.40;99.90
7143;DHT22;3613;48.902;9.204;2022-10-15T01:14:52;14.40;99.90
7143;DHT22;3613;48.902;9.204;2022-10-15T01:17:24;14.40;99.90
7143;DHT22;3613;48.902;9.204;2022-10-15T01:31:06;14.50;99.90
7143;DHT22;3613;48.902;9.204;2022-10-15T01:33:43;14.50;99.90
7143;DHT22;3613;48.902;9.204;2022-10-15T01:36:30;14.50;99.90
7143;DHT22;3613;48.902;9.204;2022-10-15T01:38:58;14.50;99.90
7143;DHT22;3613;48.902;9.204;2022-10-15T01:44:03;14.50;99.90
7143;DHT22;3613;48.902;9.204;2022-10-15T01:46:45;14.50;99.90
7143;DHT22;3613;48.902;9.204;2022-10-15T01:49:14;14.50;99.90
7143;DHT22;3613;48.902;9.204;2022-10-15T01:51:42;14.50;99.90
7143;DHT22;3613;48.902;9.204;2022-10-15T01:54:13;14.50;99.90
7143;DHT22;3613;48.902;9.204;2022-10-15T01:56:41;14.60;99.90
7143;DHT22;3613;48.902;9.204;2022-10-15T01:59:15;14.60;99.90
7143;DHT22;3613;48.902;9.204;2022-10-15T02:01:43;14.60;99.90
7143;DHT22;3613;48.902;9.204;2022-10-15T02:04:27;14.70;99.90
7143;DHT22;3613;48.902;9.204;2022-10-15T02:07:18;14.70;99.90
7143;DHT22;3613;48.902;9.204;2022-10-15T02:09:59;14.70;99.90
7143;DHT22;3613;48.902;9.204;2022-10-15T02:15:38;14.70;99.90
7143;DHT22;3613;48.902;9.204;2022-10-15T02:18:32;15.10;99.90
7143;DHT22;3613;48.902;9.204;2022-10-15T02:21:13;14.80;99.90
7143;DHT22;3613;48.902;9.204;2022-10-15T02:23:48;14.80;99.90
7143;DHT22;3613;48.902;9.204;2022-10-15T02:26:19;14.80;99.90
7143;DHT22;3613;48.902;9.204;2022-10-15T02:28:50;14.80;99.90
7143;DHT22;3613;48.902;9.204;2022-10-15T02:31:20;14.80;99.90
7143;DHT22;3613;48.902;9.204;2022-10-15T02:33:48;14.80;99.90
7143;DHT22;3613;48.902;9.204;2022-10-15T02:36:19;15.00;99.90
7143;DHT22;3613;48.902;9.204;2022-10-15T02:38:45;14.80;99.90
7143;DHT22;3613;48.902;9.204;2022-10-15T02:41:12;14.80;99.90
7143;DHT22;3613;48.902;9.204;2022-10-15T02:43:41;14.80;99.90
7143;DHT22;3613;48.902;9.204;2022-10-15T02:46:09;14.80;99.90
7143;DHT22;3613;48.902;9.204;2022-10-15T02:48:36;14.80;99.90
7143;DHT22;3613;48.902;9.204;2022-10-15T02:51:01;14.80;99.90
7143;DHT22;3613;48.902;9.204;2022-10-15T02:53:29;14.80;99.90
7143;DHT22;3613;48.902;9.204;2022-10-15T02:55:55;14.80;99.90
7143;DHT22;3613;48.902;9.204;2022-10-15T02:58:20;14.80;99.90
7143;DHT22;3613;48.902;9.204;2022-10-15T03:00:46;14.80;99.90
7143;DHT22;3613;48.902;9.204;2022-10-15T03:03:11;14.70;99.90
7143;DHT22;3613;48.902;9.204;2022-10-15T03:05:37;14.70;99.90
7143;DHT22;3613;48.902;9.204;2022-10-15T03:08:03;14.80;99.90
7143;DHT22;3613;48.902;9.204;2022-10-15T03:10:29;14.80;99.90
7143;DHT22;3613;48.902;9.204;2022-10-15T03:12:54;14.80;99.90
7143;DHT22;3613;48.902;9.204;2022-10-15T03:15:20;14.80;99.90
7143;DHT22;3613;48.902;9.204;2022-10-15T03:17:45;14.80;99.90
7143;DHT22;3613;48.902;9.204;2022-10-15T03:20:11;14.90;99.90
7143;DHT22;3613;48.902;9.204;2022-10-15T03:22:37;14.80;99.90
7143;DHT22;3613;48.902;9.204;2022-10-15T03:25:03;14.90;99.90
7143;DHT22;3613;48.902;9.204;2022-10-15T03:27:28;14.80;99.90
7143;DHT22;3613;48.902;9.204;2022-10-15T03:29:54;14.80;99.90
7143;DHT22;3613;48.902;9.204;2022-10-15T03:32:19;14.80;99.90
7143;DHT22;3613;48.902;9.204;2022-10-15T03:34:47;14.80;99.90
7143;DHT22;3613;48.902;9.204;2022-10-15T03:37:13;14.80;99.90
7143;DHT22;3613;48.902;9.204;2022-10-15T03:39:41;14.90;99.90
7143;DHT22;3613;48.902;9.204;2022-10-15T03:42:09;14.80;99.90
7143;DHT22;3613;48.902;9.204;2022-10-15T03:44:37;14.80;99.90
7143;DHT22;3613;48.902;9.204;2022-10-15T03:47:07;14.80;99.90
7143;DHT22;3613;48.902;9.204;2022-10-15T03:49:38;14.80;99.90
7143;DHT22;3613;48.902;9.204;2022-10-15T03:52:04;14.80;99.90
7143;DHT22;3613;48.902;9.204;2022-10-15T03:54:29;14.80;99.90
7143;DHT22;3613;48.902;9.204;2022-10-15T03:56:55;14.90;99.90
7143;DHT22;3613;48.902;9.204;2022-10-15T03:59:24;14.90;99.90
7143;DHT22;3613;48.902;9.204;2022-10-15T04:01:49;14.80;99.90
7143;DHT22;3613;48.902;9.204;2022-10-15T04:04:15;14.80;99.90
7143;DHT22;3613;48.902;9.204;2022-10-15T04:06:40;14.80;99.90
7143;DHT22;3613;48.902;9.204;2022-10-15T04:09:09;14.90;99.90
7143;DHT22;3613;48.902;9.204;2022-10-15T04:11:35;14.90;99.90
7143;DHT22;3613;48.902;9.204;2022-10-15T04:14:03;14.90;99.90
7143;DHT22;3613;48.902;9.204;2022-10-15T04:16:29;14.90;99.90
7143;DHT22;3613;48.902;9.204;2022-10-15T04:18:57;14.90;99.90
7143;DHT22;3613;48.902;9.204;2022-10-15T04:21:24;15.00;99.90
7143;DHT22;3613;48.902;9.204;2022-10-15T04:23:49;14.90;99.90
7143;DHT22;3613;48.902;9.204;2022-10-15T04:26:15;14.90;99.90
7143;DHT22;3613;48.902;9.204;2022-10-15T04:28:40;14.90;99.90
7143;DHT22;3613;48.902;9.204;2022-10-15T04:31:06;14.90;99.90
7143;DHT22;3613;48.902;9.204;2022-10-15T04:33:32;14.90;99.90
7143;DHT22;3613;48.902;9.204;2022-10-15T04:36:06;14.90;99.90
7143;DHT22;3613;48.902;9.204;2022-10-15T04:38:33;15.00;99.90
7143;DHT22;3613;48.902;9.204;2022-10-15T04:41:10;14.90;99.90
7143;DHT22;3613;48.902;9.204;2022-10-15T04:43:37;14.90;99.90
7143;DHT22;3613;48.902;9.204;2022-10-15T04:46:05;14.90;99.90
7143;DHT22;3613;48.902;9.204;2022-10-15T04:48:33;14.90;99.90
7143;DHT22;3613;48.902;9.204;2022-10-15T04:51:16;15.00;99.90
7143;DHT22;3613;48.902;9.204;2022-10-15T04:53:43;14.90;99.90
7143;DHT22;3613;48.902;9.204;2022-10-15T04:56:16;14.90;99.90
7143;DHT22;3613;48.902;9.204;2022-10-15T04:58:43;14.90;99.90
7143;DHT22;3613;48.902;9.204;2022-10-15T05:01:12;15.00;99.90
7143;DHT22;3613;48.902;9.204;2022-10-15T05:03:42;14.90;99.90
7143;DHT22;3613;48.902;9.204;2022-10-15T05:06:10;14.90;99.90
7143;DHT22;3613;48.902;9.204;2022-10-15T05:08:37;14.90;99.90
7143;DHT22;3613;48.902;9.204;2022-10-15T05:11:12;14.90;99.90
7143;DHT22;3613;48.902;9.204;2022-10-15T05:13:38;14.90;99.90
7143;DHT22;3613;48.902;9.204;2022-10-15T05:18:44;14.40;99.90
7143;DHT22;3613;48.902;9.204;2022-10-15T05:21:11;15.00;99.90
7143;DHT22;3613;48.902;9.204;2022-10-15T05:23:37;14.90;99.90
7143;DHT22;3613;48.902;9.204;2022-10-15T05:26:07;14.80;99.90
7143;DHT22;3613;48.902;9.204;2022-10-15T05:28:35;14.90;99.90
7143;DHT22;3613;48.902;9.204;2022-10-15T05:31:09;14.90;99.90
7143;DHT22;3613;48.902;9.204;2022-10-15T05:33:35;14.90;99.90
7143;DHT22;3613;48.902;9.204;2022-10-15T05:38:48;15.00;99.90
7143;DHT22;3613;48.902;9.204;2022-10-15T05:41:16;15.10;99.90
7143;DHT22;3613;48.902;9.204;2022-10-15T05:43:50;14.90;99.90
7143;DHT22;3613;48.902;9.204;2022-10-15T05:46:17;14.90;99.90
7143;DHT22;3613;48.902;9.204;2022-10-15T05:48:48;14.90;99.90
7143;DHT22;3613;48.902;9.204;2022-10-15T05:51:14;15.00;99.90
7143;DHT22;3613;48.902;9.204;2022-10-15T05:53:45;14.90;99.90
7143;DHT22;3613;48.902;9.204;2022-10-15T05:56:12;14.90;99.90
7143;DHT22;3613;48.902;9.204;2022-10-15T05:58:38;14.90;99.90
7143;DHT22;3613;48.902;9.204;2022-10-15T06:01:09;14.90;99.90
7143;DHT22;3613;48.902;9.204;2022-10-15T06:03:35;14.90;99.90
7143;DHT22;3613;48.902;9.204;2022-10-15T06:06:01;15.00;99.90
7143;DHT22;3613;48.902;9.204;2022-10-15T06:08:28;14.90;99.90
7143;DHT22;3613;48.902;9.204;2022-10-15T06:10:54;14.90;99.90
7143;DHT22;3613;48.902;9.204;2022-10-15T06:13:20;14.90;99.90
7143;DHT22;3613;48.902;9.204;2022-10-15T06:15:46;15.00;99.90
7143;DHT22;3613;48.902;9.204;2022-10-15T06:18:12;14.90;99.90
7143;DHT22;3613;48.902;9.204;2022-10-15T06:20:41;15.00;99.90
7143;DHT22;3613;48.902;9.204;2022-10-15T06:23:09;15.00;99.90
7143;DHT22;3613;48.902;9.204;2022-10-15T06:25:35;15.00;99.90
7143;DHT22;3613;48.902;9.204;2022-10-15T06:28:05;15.00;99.90
7143;DHT22;3613;48.902;9.204;2022-10-15T06:30:31;15.10;99.90
7143;DHT22;3613;48.902;9.204;2022-10-15T06:32:56;15.20;99.90
7143;DHT22;3613;48.902;9.204;2022-10-15T06:35:27;15.00;99.90
7143;DHT22;3613;48.902;9.204;2022-10-15T06:38:03;15.00;99.90
7143;DHT22;3613;48.902;9.204;2022-10-15T06:40:29;15.10;99.90
7143;DHT22;3613;48.902;9.204;2022-10-15T06:43:06;15.10;99.90
7143;DHT22;3613;48.902;9.204;2022-10-15T06:45:33;15.10;99.90
7143;DHT22;3613;48.902;9.204;2022-10-15T06:48:01;15.20;99.90
7143;DHT22;3613;48.902;9.204;2022-10-15T06:50:30;15.20;99.90
7143;DHT22;3613;48.902;9.204;2022-10-15T06:52:58;15.30;99.90
7143;DHT22;3613;48.902;9.204;2022-10-15T06:55:23;15.40;99.90
7143;DHT22;3613;48.902;9.204;2022-10-15T06:57:51;15.40;99.90
7143;DHT22;3613;48.902;9.204;2022-10-15T07:00:19;15.50;99.90
7143;DHT22;3613;48.902;9.204;2022-10-15T07:02:45;15.50;99.90
7143;DHT22;3613;48.902;9.204;2022-10-15T07:05:13;15.50;99.90
7143;DHT22;3613;48.902;9.204;2022-10-15T07:07:38;15.50;99.90
7143;DHT22;3613;48.902;9.204;2022-10-15T07:10:07;15.50;99.90
7143;DHT22;3613;48.902;9.204;2022-10-15T07:12:33;15.50;99.90
7143;DHT22;3613;48.902;9.204;2022-10-15T07:14:59;15.50;99.90
7143;DHT22;3613;48.902;9.204;2022-10-15T07:17:24;15.50;99.90
7143;DHT22;3613;48.902;9.204;2022-10-15T07:19:53;15.50;99.90
7143;DHT22;3613;48.902;9.204;2022-10-15T07:22:21;15.60;99.90
7143;DHT22;3613;48.902;9.204;2022-10-15T07:24:47;15.70;99.90
7143;DHT22;3613;48.902;9.204;2022-10-15T07:27:12;15.90;99.90
7143;DHT22;3613;48.902;9.204;2022-10-15T07:29:38;15.90;99.90
7143;DHT22;3613;48.902;9.204;2022-10-15T07:32:03;16.10;99.90
7143;DHT22;3613;48.902;9.204;2022-10-15T07:34:30;16.10;99.90
7143;DHT22;3613;48.902;9.204;2022-10-15T07:36:56;16.30;99.90
7143;DHT22;3613;48.902;9.204;2022-10-15T07:39:24;16.30;99.90
7143;DHT22;3613;48.902;9.204;2022-10-15T07:41:49;16.60;99.90
7143;DHT22;3613;48.902;9.204;2022-10-15T07:44:15;16.60;99.90
7143;DHT22;3613;48.902;9.204;2022-10-15T07:46:41;16.70;99.90
7143;DHT22;3613;48.902;9.204;2022-10-15T07:49:06;16.70;99.90
7143;DHT22;3613;48.902;9.204;2022-10-15T07:51:33;16.70;99.90
7143;DHT22;3613;48.902;9.204;2022-10-15T07:53:59;16.70;99.90
7143;DHT22;3613;48.902;9.204;2022-10-15T07:56:24;16.70;99.90
7143;DHT22;3613;48.902;9.204;2022-10-15T07:58:50;16.60;99.90
7143;DHT22;3613;48.902;9.204;2022-10-15T08:01:17;16.50;99.90
7143;DHT22;3613;48.902;9.204;2022-10-15T08:03:43;17.00;99.90
7143;DHT22;3613;48.902;9.204;2022-10-15T08:06:14;16.50;99.90
7143;DHT22;3613;48.902;9.204;2022-10-15T08:08:43;16.50;99.90
7143;DHT22;3613;48.902;9.204;2022-10-15T08:11:14;16.40;99.90
7143;DHT22;3613;48.902;9.204;2022-10-15T08:13:41;16.40;99.90
7143;DHT22;3613;48.902;9.204;2022-10-15T08:16:08;16.30;99.90
7143;DHT22;3613;48.902;9.204;2022-10-15T08:18:34;16.20;99.90
7143;DHT22;3613;48.902;9.204;2022-10-15T08:21:04;16.20;99.90
7143;DHT22;3613;48.902;9.204;2022-10-15T08:23:30;16.20;99.90
7143;DHT22;3613;48.902;9.204;2022-10-15T08:26:02;16.20;99.90
7143;DHT22;3613;48.902;9.204;2022-10-15T08:28:31;16.10;99.90
7143;DHT22;3613;48.902;9.204;2022-10-15T08:30:58;16.10;99.90
7143;DHT22;3613;48.902;9.204;2022-10-15T08:33:24;16.20;99.90
7143;DHT22;3613;48.902;9.204;2022-10-15T08:35:51;16.20;99.90
7143;DHT22;3613;48.902;9.204;2022-10-15T08:38:20;16.30;99.90
7143;DHT22;3613;48.902;9.204;2022-10-15T08:40:49;16.20;99.90
7143;DHT22;3613;48.902;9.204;2022-10-15T08:45:53;16.20;99.90
7143;DHT22;3613;48.902;9.204;2022-10-15T08:48:28;16.20;99.90
7143;DHT22;3613;48.902;9.204;2022-10-15T08:51:10;16.40;99.90
7143;DHT22;3613;48.902;9.204;2022-10-15T08:53:44;16.30;99.90
7143;DHT22;3613;48.902;9.204;2022-10-15T08:59:01;16.30;99.90
7143;DHT22;3613;48.902;9.204;2022-10-15T09:04:40;16.20;99.90
7143;DHT22;3613;48.902;9.204;2022-10-15T09:07:17;16.20;99.90
7143;DHT22;3613;48.902;9.204;2022-10-15T09:09:48;16.30;99.90
7143;DHT22;3613;48.902;9.204;2022-10-15T09:12:54;16.40;99.90
7143;DHT22;3613;48.902;9.204;2022-10-15T09:15:24;16.40;99.90
7143;DHT22;3613;48.902;9.204;2022-10-15T09:17:51;16.40;99.90
7143;DHT22;3613;48.902;9.204;2022-10-15T09:20:29;16.50;99.90
7143;DHT22;3613;48.902;9.204;2022-10-15T09:22:57;16.60;99.90
7143;DHT22;3613;48.902;9.204;2022-10-15T09:25:24;16.70;99.90
7143;DHT22;3613;48.902;9.204;2022-10-15T09:27:54;16.30;99.90
7143;DHT22;3613;48.902;9.204;2022-10-15T09:36:30;16.50;99.90
7143;DHT22;3613;48.902;9.204;2022-10-15T09:44:12;16.60;99.90
7143;DHT22;3613;48.902;9.204;2022-10-15T09:46:47;16.50;99.90
7143;DHT22;3613;48.902;9.204;2022-10-15T09:49:17;16.50;99.90
7143;DHT22;3613;48.902;9.204;2022-10-15T09:52:12;16.50;99.90
7143;DHT22;3613;48.902;9.204;2022-10-15T09:54:44;16.50;99.90
7143;DHT22;3613;48.902;9.204;2022-10-15T09:57:14;16.70;99.90
7143;DHT22;3613;48.902;9.204;2022-10-15T09:59:55;16.90;99.90
7143;DHT22;3613;48.902;9.204;2022-10-15T10:02:23;17.20;99.90
7143;DHT22;3613;48.902;9.204;2022-10-15T10:04:50;17.50;99.90
7143;DHT22;3613;48.902;9.204;2022-10-15T10:09:59;17.70;99.90
7143;DHT22;3613;48.902;9.204;2022-10-15T10:12:31;17.80;99.90
7143;DHT22;3613;48.902;9.204;2022-10-15T10:17:55;17.90;99.90
7143;DHT22;3613;48.902;9.204;2022-10-15T10:20:26;18.10;99.90
7143;DHT22;3613;48.902;9.204;2022-10-15T10:22:53;18.30;99.90
7143;DHT22;3613;48.902;9.204;2022-10-15T10:27:55;18.70;99.90
7143;DHT22;3613;48.902;9.204;2022-10-15T10:30:24;18.70;99.90
7143;DHT22;3613;48.902;9.204;2022-10-15T10:32:58;18.90;99.90
7143;DHT22;3613;48.902;9.204;2022-10-15T10:35:32;19.10;99.90
7143;DHT22;3613;48.902;9.204;2022-10-15T10:38:01;19.40;99.90
7143;DHT22;3613;48.902;9.204;2022-10-15T10:40:31;19.30;99.90
7143;DHT22;3613;48.902;9.204;2022-10-15T10:45:53;19.20;99.90
7143;DHT22;3613;48.902;9.204;2022-10-15T10:48:27;19.00;99.90
7143;DHT22;3613;48.902;9.204;2022-10-15T10:56:20;19.20;99.90
7143;DHT22;3613;48.902;9.204;2022-10-15T10:58:49;19.20;99.90
7143;DHT22;3613;48.902;9.204;2022-10-15T11:01:16;19.20;99.90
7143;DHT22;3613;48.902;9.204;2022-10-15T11:03:44;19.40;99.90
7143;DHT22;3613;48.902;9.204;2022-10-15T11:11:59;19.20;99.90
7143;DHT22;3613;48.902;9.204;2022-10-15T11:14:52;19.40;99.90
7143;DHT22;3613;48.902;9.204;2022-10-15T11:17:44;19.60;99.90
7143;DHT22;3613;48.902;9.204;2022-10-15T11:20:27;19.60;99.90
7143;DHT22;3613;48.902;9.204;2022-10-15T11:31:10;19.50;99.90
7143;DHT22;3613;48.902;9.204;2022-10-15T11:36:36;20.10;99.90
7143;DHT22;3613;48.902;9.204;2022-10-15T11:58:43;21.40;99.90
7143;DHT22;3613;48.902;9.204;2022-10-15T12:01:15;21.60;99.90
7143;DHT22;3613;48.902;9.204;2022-10-15T12:03:51;21.70;99.90
7143;DHT22;3613;48.902;9.204;2022-10-15T12:06:21;21.40;99.90
7143;DHT22;3613;48.902;9.204;2022-10-15T12:08:49;21.00;99.90
7143;DHT22;3613;48.902;9.204;2022-10-15T12:17:21;20.50;99.90
7143;DHT22;3613;48.902;9.204;2022-10-15T12:20:16;20.20;99.90
7143;DHT22;3613;48.902;9.204;2022-10-15T12:30:35;19.70;99.90
7143;DHT22;3613;48.902;9.204;2022-10-15T12:33:15;19.70;99.90
7143;DHT22;3613;48.902;9.204;2022-10-15T12:35:54;19.50;99.90
7143;DHT22;3613;48.902;9.204;2022-10-15T12:38:27;19.10;99.90
7143;DHT22;3613;48.902;9.204;2022-10-15T12:41:10;18.80;99.90
7143;DHT22;3613;48.902;9.204;2022-10-15T12:43:43;18.60;99.90
7143;DHT22;3613;48.902;9.204;2022-10-15T12:46:10;18.60;99.90
7143;DHT22;3613;48.902;9.204;2022-10-15T12:53:45;18.40;99.90
7143;DHT22;3613;48.902;9.204;2022-10-15T12:58:50;18.60;99.90
7143;DHT22;3613;48.902;9.204;2022-10-15T13:08:48;19.40;99.90
7143;DHT22;3613;48.902;9.204;2022-10-15T13:11:34;19.50;99.90
7143;DHT22;3613;48.902;9.204;2022-10-15T13:16:46;19.40;99.90
7143;DHT22;3613;48.902;9.204;2022-10-15T13:19:23;19.30;99.90
7143;DHT22;3613;48.902;9.204;2022-10-15T13:21:51;19.30;99.90
7143;DHT22;3613;48.902;9.204;2022-10-15T13:24:24;19.20;99.90
7143;DHT22;3613;48.902;9.204;2022-10-15T13:26:52;19.20;99.90
7143;DHT22;3613;48.902;9.204;2022-10-15T13:29:27;19.20;99.90
7143;DHT22;3613;48.902;9.204;2022-10-15T13:31:55;19.30;99.90
7143;DHT22;3613;48.902;9.204;2022-10-15T13:34:24;19.20;99.90
7143;DHT22;3613;48.902;9.204;2022-10-15T13:36:55;19.20;99.90
7143;DHT22;3613;48.902;9.204;2022-10-15T13:39:34;19.20;99.90
7143;DHT22;3613;48.902;9.204;2022-10-15T13:42:14;19.20;99.90
7143;DHT22;3613;48.902;9.204;2022-10-15T13:44:40;19.10;99.90
7143;DHT22;3613;48.902;9.204;2022-10-15T13:47:36;19.00;99.90
7143;DHT22;3613;48.902;9.204;2022-10-15T13:53:24;18.80;99.90
7143;DHT22;3613;48.902;9.204;2022-10-15T13:55:55;18.70;99.90
7143;DHT22;3613;48.902;9.204;2022-10-15T13:58:30;18.70;99.90
7143;DHT22;3613;48.902;9.204;2022-10-15T14:03:44;18.70;99.90
7143;DHT22;3613;48.902;9.204;2022-10-15T14:06:15;18.70;99.90
7143;DHT22;3613;48.902;9.204;2022-10-15T14:08:46;18.60;99.90
7143;DHT22;3613;48.902;9.204;2022-10-15T14:11:13;18.50;99.90
7143;DHT22;3613;48.902;9.204;2022-10-15T14:13:45;18.50;99.90
7143;DHT22;3613;48.902;9.204;2022-10-15T14:16:26;18.50;99.90
7143;DHT22;3613;48.902;9.204;2022-10-15T14:18:55;18.50;99.90
7143;DHT22;3613;48.902;9.204;2022-10-15T14:21:24;18.40;99.90
7143;DHT22;3613;48.902;9.204;2022-10-15T14:24:27;18.30;99.90
7143;DHT22;3613;48.902;9.204;2022-10-15T14:27:07;18.10;99.90
7143;DHT22;3613;48.902;9.204;2022-10-15T14:29:48;18.00;99.90
7143;DHT22;3613;48.902;9.204;2022-10-15T14:38:18;17.60;99.90
7143;DHT22;3613;48.902;9.204;2022-10-15T14:41:02;17.30;99.90
7143;DHT22;3613;48.902;9.204;2022-10-15T14:43:34;17.30;99.90
7143;DHT22;3613;48.902;9.204;2022-10-15T14:46:05;17.10;99.90
7143;DHT22;3613;48.902;9.204;2022-10-15T14:48:33;17.20;99.90
7143;DHT22;3613;48.902;9.204;2022-10-15T14:51:03;17.30;99.90
7143;DHT22;3613;48.902;9.204;2022-10-15T14:53:35;17.30;99.90
7143;DHT22;3613;48.902;9.204;2022-10-15T14:56:22;17.40;99.90
7143;DHT22;3613;48.902;9.204;2022-10-15T14:58:53;17.40;99.90
7143;DHT22;3613;48.902;9.204;2022-10-15T15:01:23;17.50;99.90
7143;DHT22;3613;48.902;9.204;2022-10-15T15:03:52;17.60;99.90
7143;DHT22;3613;48.902;9.204;2022-10-15T15:06:21;17.60;99.90
7143;DHT22;3613;48.902;9.204;2022-10-15T15:08:49;17.80;99.90
7143;DHT22;3613;48.902;9.204;2022-10-15T15:11:19;17.80;99.90
7143;DHT22;3613;48.902;9.204;2022-10-15T15:13:48;17.90;99.90
7143;DHT22;3613;48.902;9.204;2022-10-15T15:16:17;17.90;99.90
7143;DHT22;3613;48.902;9.204;2022-10-15T15:18:43;18.00;99.90
7143;DHT22;3613;48.902;9.204;2022-10-15T15:21:14;18.00;99.90
7143;DHT22;3613;48.902;9.204;2022-10-15T15:23:41;17.90;99.90
7143;DHT22;3613;48.902;9.204;2022-10-15T15:26:07;17.80;99.90
7143;DHT22;3613;48.902;9.204;2022-10-15T15:28:33;17.80;99.90
7143;DHT22;3613;48.902;9.204;2022-10-15T15:31:01;17.80;99.90
7143;DHT22;3613;48.902;9.204;2022-10-15T15:33:30;17.80;99.90
7143;DHT22;3613;48.902;9.204;2022-10-15T15:38:33;17.90;99.90
7143;DHT22;3613;48.902;9.204;2022-10-15T15:41:03;17.90;99.90
7143;DHT22;3613;48.902;9.204;2022-10-15T15:43:29;17.80;99.90
7143;DHT22;3613;48.902;9.204;2022-10-15T15:45:55;17.80;99.90
7143;DHT22;3613;48.902;9.204;2022-10-15T15:48:20;17.80;99.90
7143;DHT22;3613;48.902;9.204;2022-10-15T15:50:46;17.80;99.90
7143;DHT22;3613;48.902;9.204;2022-10-15T15:53:12;17.70;99.90
7143;DHT22;3613;48.902;9.204;2022-10-15T15:55:38;17.60;99.90
7143;DHT22;3613;48.902;9.204;2022-10-15T15:58:06;17.60;99.90
7143;DHT22;3613;48.902;9.204;2022-10-15T16:00:31;17.50;99.90
7143;DHT22;3613;48.902;9.204;2022-10-15T16:02:59;17.50;99.90
7143;DHT22;3613;48.902;9.204;2022-10-15T16:05:25;17.30;99.90
7143;DHT22;3613;48.902;9.204;2022-10-15T16:07:51;17.20;99.90
7143;DHT22;3613;48.902;9.204;2022-10-15T16:10:16;17.10;99.90
7143;DHT22;3613;48.902;9.204;2022-10-15T16:12:42;17.00;99.90
7143;DHT22;3613;48.902;9.204;2022-10-15T16:15:09;16.90;99.90
7143;DHT22;3613;48.902;9.204;2022-10-15T16:17:35;16.80;99.90
7143;DHT22;3613;48.902;9.204;2022-10-15T16:20:02;16.70;99.90
7143;DHT22;3613;48.902;9.204;2022-10-15T16:22:28;16.60;99.90
7143;DHT22;3613;48.902;9.204;2022-10-15T16:24:53;16.50;99.90
7143;DHT22;3613;48.902;9.204;2022-10-15T16:27:22;16.40;99.90
7143;DHT22;3613;48.902;9.204;2022-10-15T16:29:50;16.40;99.90
7143;DHT22;3613;48.902;9.204;2022-10-15T16:32:15;16.20;99.90
7143;DHT22;3613;48.902;9.204;2022-10-15T16:34:43;16.10;99.90
7143;DHT22;3613;48.902;9.204;2022-10-15T16:37:09;16.10;99.90
7143;DHT22;3613;48.902;9.204;2022-10-15T16:39:37;15.90;99.90
7143;DHT22;3613;48.902;9.204;2022-10-15T16:42:04;15.80;99.90
7143;DHT22;3613;48.902;9.204;2022-10-15T16:44:30;15.70;99.90
7143;DHT22;3613;48.902;9.204;2022-10-15T16:46:56;15.70;99.90
7143;DHT22;3613;48.902;9.204;2022-10-15T16:49:21;15.60;99.90
7143;DHT22;3613;48.902;9.204;2022-10-15T16:51:47;15.60;99.90
7143;DHT22;3613;48.902;9.204;2022-10-15T16:54:15;15.70;99.90
7143;DHT22;3613;48.902;9.204;2022-10-15T16:56:41;15.60;99.90
7143;DHT22;3613;48.902;9.204;2022-10-15T16:59:06;15.60;99.90
7143;DHT22;3613;48.902;9.204;2022-10-15T17:01:32;15.70;99.90
7143;DHT22;3613;48.902;9.204;2022-10-15T17:03:58;15.80;99.90
7143;DHT22;3613;48.902;9.204;2022-10-15T17:06:26;15.80;99.90
7143;DHT22;3613;48.902;9.204;2022-10-15T17:08:59;15.90;99.90
7143;DHT22;3613;48.902;9.204;2022-10-15T17:11:37;15.90;99.90
7143;DHT22;3613;48.902;9.204;2022-10-15T17:14:07;16.00;99.90
7143;DHT22;3613;48.902;9.204;2022-10-15T17:16:41;16.00;99.90
7143;DHT22;3613;48.902;9.204;2022-10-15T17:19:07;16.10;99.90
7143;DHT22;3613;48.902;9.204;2022-10-15T17:21:34;16.10;99.90
7143;DHT22;3613;48.902;9.204;2022-10-15T17:24:01;16.20;99.90
7143;DHT22;3613;48.902;9.204;2022-10-15T17:26:30;16.20;99.90
7143;DHT22;3613;48.902;9.204;2022-10-15T17:29:01;16.20;99.90
7143;DHT22;3613;48.902;9.204;2022-10-15T17:31:30;16.50;99.90
7143;DHT22;3613;48.902;9.204;2022-10-15T17:33:58;16.30;99.90
7143;DHT22;3613;48.902;9.204;2022-10-15T17:36:26;16.30;99.90
7143;DHT22;3613;48.902;9.204;2022-10-15T17:38:55;16.30;99.90
7143;DHT22;3613;48.902;9.204;2022-10-15T17:41:24;16.30;99.90
7143;DHT22;3613;48.902;9.204;2022-10-15T17:43:51;16.20;99.90
7143;DHT22;3613;48.902;9.204;2022-10-15T17:46:19;16.10;99.90
7143;DHT22;3613;48.902;9.204;2022-10-15T17:48:45;15.90;99.90
7143;DHT22;3613;48.902;9.204;2022-10-15T17:51:16;15.80;99.90
7143;DHT22;3613;48.902;9.204;2022-10-15T17:53:43;15.60;99.90
7143;DHT22;3613;48.902;9.204;2022-10-15T17:56:15;15.60;99.90
7143;DHT22;3613;48.902;9.204;2022-10-15T17:58:42;15.40;99.90
7143;DHT22;3613;48.902;9.204;2022-10-15T18:01:21;15.40;99.90
7143;DHT22;3613;48.902;9.204;2022-10-15T18:03:48;15.40;99.90
7143;DHT22;3613;48.902;9.204;2022-10-15T18:06:17;15.40;99.90
7143;DHT22;3613;48.902;9.204;2022-10-15T18:08:44;15.30;99.90
7143;DHT22;3613;48.902;9.204;2022-10-15T18:11:15;15.40;99.90
7143;DHT22;3613;48.902;9.204;2022-10-15T18:13:42;15.40;99.90
7143;DHT22;3613;48.902;9.204;2022-10-15T18:16:08;15.40;99.90
7143;DHT22;3613;48.902;9.204;2022-10-15T18:18:36;15.40;99.90
7143;DHT22;3613;48.902;9.204;2022-10-15T18:21:09;15.40;99.90
7143;DHT22;3613;48.902;9.204;2022-10-15T18:23:36;15.40;99.90
7143;DHT22;3613;48.902;9.204;2022-10-15T18:26:07;15.40;99.90
7143;DHT22;3613;48.902;9.204;2022-10-15T18:28:34;15.40;99.90
7143;DHT22;3613;48.902;9.204;2022-10-15T18:31:02;15.50;99.90
7143;DHT22;3613;48.902;9.204;2022-10-15T18:33:29;15.50;99.90
7143;DHT22;3613;48.902;9.204;2022-10-15T18:35:54;15.40;99.90
7143;DHT22;3613;48.902;9.204;2022-10-15T18:38:22;15.50;99.90
7143;DHT22;3613;48.902;9.204;2022-10-15T18:40:53;15.50;99.90
7143;DHT22;3613;48.902;9.204;2022-10-15T18:43:18;15.50;99.90
7143;DHT22;3613;48.902;9.204;2022-10-15T18:45:46;15.50;99.90
7143;DHT22;3613;48.902;9.204;2022-10-15T18:48:12;15.50;99.90